createdAt,value
2023-04-28T00:00:14.162Z,14.81
2023-04-28T00:05:16.729Z,14.56
2023-04-28T00:10:18.956Z,14.52
2023-04-28T00:15:23.271Z,14.68
2023-04-28T00:20:25.461Z,14.82
2023-04-28T00:25:27.636Z,14.57
2023-04-28T00:30:32.960Z,14.79
2023-04-28T00:35:35.145Z,14.73
2023-04-28T00:40:39.571Z,14.46
2023-04-28T00:45:41.940Z,14.83
2023-04-28T00:50:48.750Z,14.85
2023-04-28T00:55:54.315Z,14.93
2023-04-28T01:01:04.882Z,14.64
2023-04-28T01:06:09.734Z,14.59
2023-04-28T01:11:14.503Z,14.49
2023-04-28T01:16:34.087Z,14.85
2023-04-28T01:21:37.584Z,14.92
2023-04-28T01:26:49.798Z,14.93
2023-04-28T01:31:51.943Z,14.85
2023-04-28T01:36:54.116Z,14.82
2023-04-28T01:41:56.393Z,14.77
2023-04-28T01:47:00.841Z,14.50
2023-04-28T01:52:03.473Z,14.45
2023-04-28T01:57:31.965Z,14.60
2023-04-28T02:02:37.161Z,14.47
2023-04-28T02:07:41.552Z,14.11
2023-04-28T02:12:43.972Z,14.12
2023-04-28T02:17:48.261Z,13.88
2023-04-28T02:22:50.577Z,13.79
2023-04-28T02:27:52.752Z,13.73
2023-04-28T02:32:55.910Z,13.67
2023-04-28T02:37:58.107Z,13.71
2023-04-28T02:43:00.702Z,13.60
2023-04-28T02:48:05.284Z,13.57
2023-04-28T02:53:07.489Z,13.58
2023-04-28T02:58:10.186Z,13.52
2023-04-28T03:03:12.918Z,13.51
2023-04-28T03:08:15.310Z,13.53
2023-04-28T03:13:18.372Z,13.54
2023-04-28T03:18:20.642Z,13.52
2023-04-28T03:23:22.861Z,13.54
2023-04-28T03:28:25.201Z,13.89
2023-04-28T03:33:27.752Z,14.21
2023-04-28T03:38:30.976Z,14.13
2023-04-28T03:43:37.639Z,14.11
2023-04-28T03:49:02.464Z,14.21
2023-04-28T03:54:05.957Z,14.38
2023-04-28T03:59:11.889Z,14.52
2023-04-28T04:04:14.723Z,14.08
2023-04-28T04:09:17.429Z,13.83
2023-04-28T04:14:19.716Z,13.73
2023-04-28T04:19:24.155Z,13.79
2023-04-28T04:24:29.159Z,13.87
2023-04-28T04:29:31.841Z,14.11
2023-04-28T04:34:36.248Z,13.96
2023-04-28T04:39:39.329Z,13.94
2023-04-28T04:44:41.757Z,14.23
2023-04-28T04:49:53.378Z,14.49
2023-04-28T04:54:58.439Z,14.58
2023-04-28T05:00:01.103Z,14.24
2023-04-28T05:05:16.853Z,13.71
2023-04-28T05:10:27.582Z,13.37
2023-04-28T05:15:32.226Z,13.05
2023-04-28T05:21:02.566Z,12.93
2023-04-28T05:26:05.686Z,12.87
2023-04-28T05:31:08.294Z,12.71
2023-04-28T05:36:11.153Z,12.74
2023-04-28T05:41:13.660Z,12.74
2023-04-28T05:46:29.088Z,12.77
2023-04-28T05:51:34.220Z,12.83
2023-04-28T05:56:37.925Z,12.83
2023-04-28T06:01:42.346Z,12.84
2023-04-28T06:06:44.807Z,12.82
2023-04-28T06:11:49.850Z,12.75
2023-04-28T06:16:55.017Z,12.67
2023-04-28T06:21:59.686Z,12.72
2023-04-28T06:27:02.956Z,12.53
2023-04-28T06:32:06.218Z,12.64
2023-04-28T06:37:08.652Z,12.75
2023-04-28T06:42:11.017Z,12.75
2023-04-28T06:47:17.486Z,12.86
2023-04-28T06:52:24.892Z,13.01
2023-04-28T06:57:36.269Z,12.85
2023-04-28T07:02:38.764Z,12.86
2023-04-28T07:07:41.290Z,13.04
2023-04-28T07:12:43.600Z,13.10
2023-04-28T07:17:45.983Z,13.16
2023-04-28T07:22:48.270Z,13.35
2023-04-28T07:27:50.477Z,13.33
2023-04-28T07:32:52.854Z,13.71
2023-04-28T07:37:55.947Z,13.69
2023-04-28T07:42:58.093Z,13.73
2023-04-28T07:48:00.304Z,13.62
2023-04-28T07:53:02.587Z,13.59
2023-04-28T07:58:05.599Z,13.57
2023-04-28T08:03:08.023Z,13.51
2023-04-28T08:08:10.511Z,13.29
2023-04-28T08:13:13.099Z,13.17
2023-04-28T08:18:15.840Z,13.28
2023-04-28T08:23:18.012Z,13.22
2023-04-28T08:28:20.311Z,13.35
2023-04-28T08:33:24.048Z,13.74
2023-04-28T08:38:27.216Z,14.48
2023-04-28T08:43:30.330Z,15.25
2023-04-28T08:48:41.187Z,16.10
2023-04-28T08:59:06.823Z,15.51
2023-04-28T09:04:14.030Z,15.68
2023-04-28T09:09:27.035Z,15.46
2023-04-28T09:14:33.050Z,15.21
2023-04-28T09:19:38.194Z,15.15
2023-04-28T09:24:43.012Z,14.62
2023-04-28T09:29:55.863Z,14.98
2023-04-28T09:34:58.101Z,15.55
2023-04-28T09:40:12.487Z,16.15
2023-04-28T09:45:16.463Z,16.55
2023-04-28T09:50:19.124Z,16.99
2023-04-28T09:55:21.406Z,17.54
2023-04-28T10:00:24.424Z,17.50
2023-04-28T10:05:26.945Z,18.40
2023-04-28T10:10:29.814Z,17.45
2023-04-28T10:15:33.774Z,17.07
2023-04-28T10:20:39.361Z,17.40
2023-04-28T10:25:43.664Z,17.66
2023-04-28T10:31:11.181Z,18.01
2023-04-28T10:36:55.166Z,17.93
2023-04-28T10:41:57.585Z,17.71
2023-04-28T10:47:10.846Z,17.18
2023-04-28T10:52:41.112Z,17.46
2023-04-28T10:57:43.414Z,18.03
2023-04-28T11:02:48.031Z,18.57
2023-04-28T11:08:31.214Z,18.76
2023-04-28T11:13:34.639Z,19.27
2023-04-28T11:19:05.101Z,19.22
2023-04-28T11:24:11.475Z,18.44
2023-04-28T11:29:15.339Z,18.40
2023-04-28T11:34:22.692Z,18.79
2023-04-28T11:39:33.777Z,19.50
2023-04-28T11:44:36.373Z,19.32
2023-04-28T11:49:47.864Z,18.93
2023-04-28T11:55:00.392Z,19.50
2023-04-28T12:00:22.079Z,19.57
2023-04-28T12:05:24.417Z,19.82
2023-04-28T12:10:26.646Z,18.67
2023-04-28T12:15:41.466Z,18.97
2023-04-28T12:20:43.872Z,19.48
2023-04-28T12:25:48.259Z,19.74
2023-04-28T12:30:51.211Z,19.64
2023-04-28T12:35:57.479Z,19.77
2023-04-28T12:41:00.670Z,19.57
2023-04-28T12:46:04.274Z,19.55
2023-04-28T12:51:06.652Z,19.67
2023-04-28T12:56:08.947Z,19.34
2023-04-28T13:01:11.263Z,19.06
2023-04-28T13:06:13.566Z,19.36
2023-04-28T13:11:22.670Z,19.48
2023-04-28T13:16:29.067Z,19.50
2023-04-28T13:21:32.161Z,19.74
2023-04-28T13:26:34.715Z,20.42
2023-04-28T13:31:37.304Z,20.32
2023-04-28T13:36:39.496Z,20.10
2023-04-28T13:41:41.975Z,19.86
2023-04-28T13:46:44.214Z,19.12
2023-04-28T13:51:46.386Z,18.85
2023-04-28T13:56:48.907Z,18.96
2023-04-28T14:01:52.064Z,18.77
2023-04-28T14:06:54.473Z,18.81
2023-04-28T14:11:57.012Z,18.87
2023-04-28T14:16:59.651Z,18.52
2023-04-28T14:22:02.877Z,17.80
2023-04-28T14:27:05.096Z,17.85
2023-04-28T14:32:07.428Z,18.37
2023-04-28T14:37:10.071Z,18.52
2023-04-28T14:42:12.570Z,18.37
2023-04-28T14:47:15.188Z,18.67
2023-04-28T14:52:18.045Z,18.30
2023-04-28T14:57:20.462Z,17.81
2023-04-28T15:02:28.616Z,17.16
2023-04-28T15:07:33.916Z,17.14
2023-04-28T15:12:36.097Z,16.77
2023-04-28T15:17:38.352Z,16.55
2023-04-28T15:22:41.205Z,16.57
2023-04-28T15:27:43.667Z,16.53
2023-04-28T15:32:45.984Z,16.21
2023-04-28T15:37:48.352Z,16.03
2023-04-28T15:42:53.272Z,15.88
2023-04-28T15:47:55.871Z,15.97
2023-04-28T15:52:58.313Z,16.05
2023-04-28T15:58:01.460Z,16.12
2023-04-28T16:03:03.870Z,16.16
2023-04-28T16:08:06.223Z,16.10
2023-04-28T16:13:11.804Z,15.99
2023-04-28T16:18:14.353Z,15.85
2023-04-28T16:23:16.800Z,15.83
2023-04-28T16:28:19.148Z,16.01
2023-04-28T16:33:21.463Z,16.28
2023-04-28T16:38:23.845Z,16.63
2023-04-28T16:43:29.061Z,16.34
2023-04-28T16:48:31.342Z,16.26
2023-04-28T16:53:36.712Z,16.26
2023-04-28T16:58:38.982Z,16.24
2023-04-28T17:03:42.335Z,16.37
2023-04-28T17:08:44.726Z,16.39
2023-04-28T17:13:47.541Z,16.45
2023-04-28T17:18:49.921Z,16.36
2023-04-28T17:23:52.121Z,16.47
2023-04-28T17:28:58.936Z,16.56
2023-04-28T17:34:01.304Z,16.62
2023-04-28T17:39:04.722Z,16.76
2023-04-28T17:44:07.021Z,16.66
2023-04-28T17:49:09.369Z,16.56
2023-04-28T17:54:11.632Z,16.61
2023-04-28T17:59:16.172Z,16.64
2023-04-28T18:04:18.333Z,16.50
2023-04-28T18:09:20.554Z,16.46
2023-04-28T18:14:23.332Z,16.60
2023-04-28T18:19:30.485Z,16.69
2023-04-28T18:24:32.639Z,16.68
2023-04-28T18:29:34.884Z,16.56
2023-04-28T18:34:37.015Z,16.52
2023-04-28T18:39:39.220Z,16.42
2023-04-28T18:44:41.661Z,16.33
2023-04-28T18:49:44.135Z,16.24
2023-04-28T18:54:46.547Z,16.20
2023-04-28T18:59:49.327Z,16.21
2023-04-28T19:04:51.832Z,16.37
2023-04-28T19:09:54.131Z,16.35
2023-04-28T19:14:56.530Z,16.28
2023-04-28T19:19:59.140Z,16.21
2023-04-28T19:25:02.524Z,16.10
2023-04-28T19:30:07.423Z,15.99
2023-04-28T19:35:10.426Z,16.10
2023-04-28T19:40:13.255Z,16.03
2023-04-28T19:45:17.133Z,16.11
2023-04-28T19:50:19.700Z,16.21
2023-04-28T19:55:23.957Z,16.28
2023-04-28T20:00:28.897Z,16.23
2023-04-28T20:05:32.105Z,16.12
2023-04-28T20:10:34.301Z,16.08
2023-04-28T20:15:36.557Z,16.03
2023-04-28T20:20:38.775Z,16.01
2023-04-28T20:25:41.514Z,15.98
2023-04-28T20:30:43.778Z,15.94
2023-04-28T20:35:45.936Z,15.84
2023-04-28T20:40:48.195Z,15.80
2023-04-28T20:45:50.732Z,15.77
2023-04-28T20:50:55.331Z,15.84
2023-04-28T20:55:57.788Z,15.98
2023-04-28T21:01:00.050Z,16.02
2023-04-28T21:06:02.211Z,15.96
2023-04-28T21:11:04.814Z,15.95
2023-04-28T21:16:16.479Z,16.07
2023-04-28T21:21:20.620Z,16.02
2023-04-28T21:26:24.090Z,16.01
2023-04-28T21:31:26.779Z,15.88
2023-04-28T21:36:29.013Z,15.72
2023-04-28T21:41:33.573Z,15.58
2023-04-28T21:46:36.133Z,15.52
2023-04-28T21:51:39.526Z,15.53
2023-04-28T21:56:41.796Z,15.52
2023-04-28T22:01:44.273Z,15.46
2023-04-28T22:06:46.766Z,15.48
2023-04-28T22:11:48.923Z,15.35
2023-04-28T22:16:51.117Z,15.24
2023-04-28T22:21:53.355Z,15.15
2023-04-28T22:26:55.518Z,15.15
2023-04-28T22:31:58.856Z,15.09
2023-04-28T22:37:01.054Z,15.00
2023-04-28T22:42:04.443Z,15.04
2023-04-28T22:47:06.828Z,15.18
2023-04-28T22:52:09.023Z,15.09
2023-04-28T22:57:11.269Z,15.04
2023-04-28T23:02:13.861Z,15.01
2023-04-28T23:07:15.999Z,14.97
2023-04-28T23:12:18.382Z,15.06
2023-04-28T23:17:20.563Z,15.24
2023-04-28T23:22:22.890Z,15.29
2023-04-28T23:27:25.410Z,15.33
2023-04-28T23:32:27.692Z,15.38
2023-04-28T23:37:30.133Z,15.39
2023-04-28T23:42:32.391Z,15.39
2023-04-28T23:47:34.818Z,15.33
2023-04-28T23:52:37.422Z,15.31
2023-04-28T23:57:40.601Z,15.31
